createdAt,value
2023-04-22T00:02:32.741Z,100672.91
2023-04-22T00:05:16.430Z,100666.35
2023-04-22T00:08:01.243Z,100666.16
2023-04-22T00:10:40.530Z,100664.82
2023-04-22T00:13:19.421Z,100666.26
2023-04-22T00:15:58.144Z,100664.80
2023-04-22T00:18:38.419Z,100666.85
2023-04-22T00:21:18.469Z,100661.39
2023-04-22T00:23:57.304Z,100659.61
2023-04-22T00:26:36.318Z,100654.81
2023-04-22T00:29:14.691Z,100654.23
2023-04-22T00:31:53.064Z,100654.00
2023-04-22T00:34:24.127Z,100657.23
2023-04-22T00:36:56.144Z,100657.95
2023-04-22T00:39:33.418Z,100659.45
2023-04-22T00:42:13.007Z,100658.21
2023-04-22T00:44:53.153Z,100662.06
2023-04-22T00:47:32.628Z,100661.25
2023-04-22T00:50:13.660Z,100647.54
2023-04-22T00:52:52.329Z,100661.33
2023-04-22T00:55:30.985Z,100657.34
2023-04-22T00:58:11.932Z,100657.23
2023-04-22T01:00:50.461Z,100654.27
2023-04-22T01:03:35.757Z,100657.96
2023-04-22T01:06:14.045Z,100655.50
2023-04-22T01:08:53.719Z,100658.59
2023-04-22T01:11:32.481Z,100656.63
2023-04-22T01:14:12.411Z,100655.42
2023-04-22T01:16:51.874Z,100654.64
2023-04-22T01:19:31.186Z,100653.18
2023-04-22T01:22:13.055Z,100650.73
2023-04-22T01:24:53.003Z,100653.64
2023-04-22T01:27:32.438Z,100653.44
2023-04-22T01:30:09.937Z,100655.43
2023-04-22T01:32:45.477Z,100655.81
2023-04-22T01:35:24.802Z,100654.80
2023-04-22T01:38:03.313Z,100658.13
2023-04-22T01:40:41.693Z,100656.00
2023-04-22T01:43:19.744Z,100660.77
2023-04-22T01:45:58.191Z,100659.26
2023-04-22T01:48:37.768Z,100660.09
2023-04-22T01:51:16.439Z,100656.88
2023-04-22T01:53:55.642Z,100658.42
2023-04-22T01:56:34.366Z,100659.90
2023-04-22T01:59:13.796Z,100659.90
2023-04-22T02:01:53.025Z,100658.17
2023-04-22T02:04:32.052Z,100656.10
2023-04-22T02:07:13.088Z,100653.60
2023-04-22T02:09:51.527Z,100651.92
2023-04-22T02:12:30.398Z,100660.64
2023-04-22T02:15:11.056Z,100655.34
2023-04-22T02:17:49.687Z,100651.99
2023-04-22T02:20:22.242Z,100649.61
2023-04-22T02:22:57.370Z,100648.91
2023-04-22T02:25:36.115Z,100644.84
2023-04-22T02:28:10.247Z,100645.24
2023-04-22T02:30:49.771Z,100645.48
2023-04-22T02:33:28.445Z,100645.59
2023-04-22T02:36:07.917Z,100644.02
2023-04-22T02:38:48.333Z,100644.92
2023-04-22T02:41:27.293Z,100645.45
2023-04-22T02:44:06.843Z,100645.03
2023-04-22T02:46:45.538Z,100645.58
2023-04-22T02:49:24.933Z,100643.30
2023-04-22T02:52:03.497Z,100643.86
2023-04-22T02:54:41.952Z,100642.34
2023-04-22T02:57:21.570Z,100641.02
2023-04-22T03:00:00.667Z,100643.50
2023-04-22T03:02:39.424Z,100645.29
2023-04-22T03:05:18.980Z,100645.88
2023-04-22T03:07:58.158Z,100642.84
2023-04-22T03:10:37.267Z,100645.40
2023-04-22T03:13:17.999Z,100647.45
2023-04-22T03:15:57.088Z,100646.31
2023-04-22T03:18:35.745Z,100648.91
2023-04-22T03:21:15.428Z,100646.73
2023-04-22T03:23:54.547Z,100650.38
2023-04-22T03:26:33.437Z,100649.48
2023-04-22T03:29:13.334Z,100654.21
2023-04-22T03:31:51.560Z,100658.73
2023-04-22T03:34:22.851Z,100659.58
2023-04-22T03:36:59.140Z,100659.27
2023-04-22T03:39:38.819Z,100657.98
2023-04-22T03:42:18.606Z,100660.53
2023-04-22T03:44:58.083Z,100659.38
2023-04-22T03:47:38.133Z,100662.58
2023-04-22T03:50:18.041Z,100664.89
2023-04-22T03:52:57.649Z,100664.75
2023-04-22T03:55:36.743Z,100666.35
2023-04-22T03:58:17.391Z,100657.85
2023-04-22T04:00:56.432Z,100670.11
2023-04-22T04:03:36.221Z,100670.16
2023-04-22T04:06:16.158Z,100669.27
2023-04-22T04:08:55.661Z,100669.82
2023-04-22T04:11:34.763Z,100671.48
2023-04-22T04:14:14.618Z,100675.27
2023-04-22T04:16:54.690Z,100678.41
2023-04-22T04:19:26.205Z,100679.20
2023-04-22T04:22:07.100Z,100678.45
2023-04-22T04:24:46.173Z,100678.93
2023-04-22T04:27:25.588Z,100683.70
2023-04-22T04:30:04.356Z,100678.45
2023-04-22T04:32:46.096Z,100680.83
2023-04-22T04:35:25.391Z,100686.48
2023-04-22T04:38:05.622Z,100689.09
2023-04-22T04:40:45.965Z,100679.96
2023-04-22T04:43:26.278Z,100690.66
2023-04-22T04:46:06.779Z,100691.93
2023-04-22T04:48:46.847Z,100691.88
2023-04-22T04:51:27.025Z,100694.90
2023-04-22T04:53:57.349Z,100694.05
2023-04-22T04:56:37.640Z,100690.90
2023-04-22T04:59:16.515Z,100690.52
2023-04-22T05:01:56.588Z,100688.99
2023-04-22T05:04:36.071Z,100686.63
2023-04-22T05:07:07.136Z,100688.30
2023-04-22T05:09:42.489Z,100684.77
2023-04-22T05:12:21.714Z,100686.11
2023-04-22T05:15:01.566Z,100685.77
2023-04-22T05:17:41.281Z,100683.03
2023-04-22T05:20:18.882Z,100684.82
2023-04-22T05:22:58.964Z,100684.98
2023-04-22T05:25:39.148Z,100680.44
2023-04-22T05:28:18.387Z,100682.13
2023-04-22T05:30:57.794Z,100679.59
2023-04-22T05:33:36.960Z,100674.75
2023-04-22T05:36:16.618Z,100679.98
2023-04-22T05:38:56.462Z,100673.23
2023-04-22T05:41:28.485Z,100668.38
2023-04-22T05:44:10.011Z,100668.00
2023-04-22T05:46:49.547Z,100665.55
2023-04-22T05:49:29.207Z,100667.14
2023-04-22T05:52:10.825Z,100664.69
2023-04-22T05:54:50.217Z,100659.88
2023-04-22T05:57:29.141Z,100662.95
2023-04-22T06:00:09.517Z,100651.32
2023-04-22T06:02:47.066Z,100652.19
2023-04-22T06:05:26.265Z,100652.23
2023-04-22T06:08:06.067Z,100646.77
2023-04-22T06:10:46.612Z,100640.05
2023-04-22T06:13:27.925Z,100646.31
2023-04-22T06:18:55.511Z,100640.94
2023-04-22T06:21:40.179Z,100640.81
2023-04-22T06:24:19.927Z,100642.05
2023-04-22T06:26:59.069Z,100639.86
2023-04-22T06:29:38.653Z,100638.75
2023-04-22T06:32:18.633Z,100637.36
2023-04-22T06:34:54.591Z,100633.59
2023-04-22T06:37:34.620Z,100635.95
2023-04-22T06:40:16.603Z,100636.25
2023-04-22T06:42:55.966Z,100637.16
2023-04-22T06:45:35.610Z,100636.14
2023-04-22T06:48:16.677Z,100630.09
2023-04-22T06:50:57.277Z,100636.91
2023-04-22T06:53:36.954Z,100634.05
2023-04-22T06:56:16.693Z,100635.65
2023-04-22T06:58:55.776Z,100640.59
2023-04-22T07:01:35.742Z,100637.54
2023-04-22T07:04:15.744Z,100640.52
2023-04-22T07:06:54.808Z,100635.78
2023-04-22T07:09:34.494Z,100635.23
2023-04-22T07:12:14.153Z,100638.44
2023-04-22T07:14:53.639Z,100637.76
2023-04-22T07:17:32.539Z,100634.20
2023-04-22T07:20:13.224Z,100634.79
2023-04-22T07:22:52.106Z,100634.02
2023-04-22T07:25:31.815Z,100630.61
2023-04-22T07:28:09.651Z,100630.83
2023-04-22T07:30:49.765Z,100630.16
2023-04-22T07:33:31.330Z,100626.80
2023-04-22T07:36:12.028Z,100622.98
2023-04-22T07:38:51.012Z,100621.30
2023-04-22T07:41:30.572Z,100620.91
2023-04-22T07:44:17.895Z,100620.13
2023-04-22T07:46:57.947Z,100617.49
2023-04-22T07:49:37.597Z,100615.23
2023-04-22T07:52:08.611Z,100619.63
2023-04-22T07:54:49.899Z,100614.92
2023-04-22T07:57:29.334Z,100614.05
2023-04-22T08:00:11.928Z,100617.52
2023-04-22T08:02:51.798Z,100616.98
2023-04-22T08:05:31.183Z,100617.11
2023-04-22T08:08:11.503Z,100614.98
2023-04-22T08:10:52.948Z,100615.36
2023-04-22T08:13:33.233Z,100615.18
2023-04-22T08:16:14.111Z,100614.81
2023-04-22T08:18:53.983Z,100611.21
2023-04-22T08:21:33.306Z,100611.48
2023-04-22T08:24:10.797Z,100606.50
2023-04-22T08:26:49.379Z,100602.59
2023-04-22T08:29:31.238Z,100602.21
2023-04-22T08:32:11.449Z,100600.61
2023-04-22T08:35:01.397Z,100603.30
2023-04-22T08:37:47.093Z,100600.23
2023-04-22T08:40:26.868Z,100603.14
2023-04-22T08:43:06.242Z,100602.91
2023-04-22T08:45:47.075Z,100601.42
2023-04-22T08:48:27.270Z,100600.64
2023-04-22T08:51:03.387Z,100599.19
2023-04-22T08:53:42.386Z,100597.48
2023-04-22T08:56:22.546Z,100603.64
2023-04-22T08:59:01.459Z,100603.58
2023-04-22T09:01:44.335Z,100599.08
2023-04-22T09:04:24.666Z,100599.86
2023-04-22T09:07:02.042Z,100597.64
2023-04-22T09:09:40.948Z,100589.56
2023-04-22T09:12:20.181Z,100587.38
2023-04-22T09:14:59.300Z,100591.38
2023-04-22T09:17:39.837Z,100587.64
2023-04-22T09:20:20.450Z,100587.75
2023-04-22T09:22:59.721Z,100583.80
2023-04-22T09:25:40.019Z,100581.34
2023-04-22T09:28:22.673Z,100585.83
2023-04-22T09:31:06.097Z,100587.27
2023-04-22T09:33:50.322Z,100582.38
2023-04-22T09:36:34.359Z,100579.55
2023-04-22T09:39:10.551Z,100577.32
2023-04-22T09:41:56.938Z,100575.01
2023-04-22T09:44:31.044Z,100571.37
2023-04-22T09:47:12.499Z,100569.07
2023-04-22T09:49:51.121Z,100567.15
2023-04-22T09:52:34.340Z,100563.81
2023-04-22T09:55:11.330Z,100559.86
2023-04-22T09:57:52.578Z,100558.48
2023-04-22T10:00:32.492Z,100560.16
2023-04-22T10:03:11.244Z,100557.35
2023-04-22T10:05:50.152Z,100554.69
2023-04-22T10:08:29.734Z,100550.17
2023-04-22T10:11:10.146Z,100558.40
2023-04-22T10:13:49.770Z,100552.95
2023-04-22T10:16:32.412Z,100552.05
2023-04-22T10:19:14.373Z,100547.84
2023-04-22T10:22:04.718Z,100549.11
2023-04-22T10:24:45.524Z,100544.04
2023-04-22T10:27:26.369Z,100532.44
2023-04-22T10:30:05.691Z,100538.58
2023-04-22T10:32:45.034Z,100532.25
2023-04-22T10:35:31.145Z,100528.08
2023-04-22T10:38:12.731Z,100533.63
2023-04-22T10:41:05.277Z,100528.96
2023-04-22T10:43:59.386Z,100521.09
2023-04-22T10:46:45.016Z,100526.79
2023-04-22T10:49:24.464Z,100530.01
2023-04-22T10:52:05.852Z,100527.73
2023-04-22T10:54:49.922Z,100520.48
2023-04-22T10:57:40.513Z,100519.36
2023-04-22T11:00:45.833Z,100516.89
2023-04-22T11:03:39.484Z,100517.14
2023-04-22T11:06:28.718Z,100517.29
2023-04-22T11:09:14.436Z,100514.21
2023-04-22T11:11:53.707Z,100515.98
2023-04-22T11:14:33.119Z,100514.33
2023-04-22T11:17:13.691Z,100511.11
2023-04-22T11:19:58.272Z,100505.06
2023-04-22T11:22:49.660Z,100503.29
2023-04-22T11:25:30.223Z,100503.58
2023-04-22T11:28:09.581Z,100502.27
2023-04-22T11:30:48.965Z,100501.91
2023-04-22T11:33:28.403Z,100505.80
2023-04-22T11:36:12.531Z,100502.58
2023-04-22T11:39:09.141Z,100497.85
2023-04-22T11:41:49.214Z,100493.14
2023-04-22T11:44:30.915Z,100492.94
2023-04-22T11:47:13.981Z,100491.98
2023-04-22T11:50:10.150Z,100489.63
2023-04-22T11:53:15.042Z,100488.70
2023-04-22T11:55:54.462Z,100490.00
2023-04-22T11:58:34.020Z,100487.61
2023-04-22T12:01:14.966Z,100490.08
2023-04-22T12:04:04.883Z,100485.96
2023-04-22T12:06:37.148Z,100486.83
2023-04-22T12:09:16.011Z,100485.27
2023-04-22T12:11:54.633Z,100484.38
2023-04-22T12:14:36.696Z,100483.20
2023-04-22T12:17:17.047Z,100481.80
2023-04-22T12:19:56.321Z,100481.67
2023-04-22T12:22:34.831Z,100479.48
2023-04-22T12:25:20.455Z,100476.32
2023-04-22T12:27:57.661Z,100475.94
2023-04-22T12:30:35.669Z,100473.00
2023-04-22T12:33:08.170Z,100470.10
2023-04-22T12:35:49.359Z,100467.61
2023-04-22T12:38:29.432Z,100467.22
2023-04-22T12:41:10.890Z,100467.46
2023-04-22T12:43:53.076Z,100466.23
2023-04-22T12:46:27.310Z,100460.66
2023-04-22T12:49:07.228Z,100458.05
2023-04-22T12:51:47.375Z,100458.33
2023-04-22T12:54:29.264Z,100451.17
2023-04-22T12:57:15.990Z,100449.63
2023-04-22T12:59:59.300Z,100444.86
2023-04-22T13:02:38.102Z,100442.16
2023-04-22T13:05:18.519Z,100439.30
2023-04-22T13:08:06.410Z,100437.15
2023-04-22T13:10:50.403Z,100434.60
2023-04-22T13:13:30.760Z,100430.98
2023-04-22T13:16:13.833Z,100431.41
2023-04-22T13:18:53.773Z,100427.27
2023-04-22T13:21:33.505Z,100430.30
2023-04-22T13:24:06.346Z,100431.65
2023-04-22T13:26:39.635Z,100431.90
2023-04-22T13:29:17.332Z,100422.98
2023-04-22T13:31:57.262Z,100422.41
2023-04-22T13:34:36.886Z,100419.69
2023-04-22T13:37:22.113Z,100420.77
2023-04-22T13:39:57.751Z,100417.80
2023-04-22T13:42:37.522Z,100417.09
2023-04-22T13:45:17.634Z,100419.73
2023-04-22T13:47:57.741Z,100414.98
2023-04-22T13:50:37.686Z,100416.40
2023-04-22T13:53:17.725Z,100417.39
2023-04-22T13:55:57.434Z,100414.81
2023-04-22T13:58:37.480Z,100411.79
2023-04-22T14:01:18.490Z,100409.95
2023-04-22T14:03:58.895Z,100414.83
2023-04-22T14:06:38.634Z,100412.71
2023-04-22T14:09:18.416Z,100411.79
2023-04-22T14:11:58.885Z,100407.88
2023-04-22T14:14:38.383Z,100407.56
2023-04-22T14:17:20.112Z,100407.20
2023-04-22T14:19:58.658Z,100398.13
2023-04-22T14:22:34.463Z,100410.73
2023-04-22T14:25:15.670Z,100404.77
2023-04-22T14:27:56.102Z,100405.73
2023-04-22T14:30:35.940Z,100403.71
2023-04-22T14:33:18.117Z,100403.53
2023-04-22T14:35:58.065Z,100400.39
2023-04-22T14:38:38.575Z,100400.58
2023-04-22T14:41:19.272Z,100397.36
2023-04-22T14:43:58.253Z,100393.86
2023-04-22T14:46:39.244Z,100393.75
2023-04-22T14:49:19.211Z,100393.16
2023-04-22T14:52:03.047Z,100391.09
2023-04-22T14:54:39.819Z,100388.52
2023-04-22T14:57:19.680Z,100388.63
2023-04-22T14:59:59.794Z,100386.83
2023-04-22T15:02:39.989Z,100386.54
2023-04-22T15:05:17.552Z,100386.94
2023-04-22T15:08:00.251Z,100388.18
2023-04-22T15:10:39.842Z,100388.90
2023-04-22T15:13:20.242Z,100390.52
2023-04-22T15:16:00.144Z,100392.03
2023-04-22T15:18:40.990Z,100389.77
2023-04-22T15:21:20.605Z,100389.66
2023-04-22T15:24:00.401Z,100389.02
2023-04-22T15:26:40.944Z,100386.81
2023-04-22T15:29:20.503Z,100388.86
2023-04-22T15:32:00.348Z,100385.48
2023-04-22T15:34:39.889Z,100387.13
2023-04-22T15:37:20.692Z,100383.61
2023-04-22T15:40:00.173Z,100382.54
2023-04-22T15:42:39.930Z,100382.79
2023-04-22T15:45:20.270Z,100383.05
2023-04-22T15:48:00.759Z,100377.15
2023-04-22T15:50:40.099Z,100379.63
2023-04-22T15:53:20.010Z,100373.73
2023-04-22T15:55:59.977Z,100370.80
2023-04-22T15:58:40.754Z,100368.66
2023-04-22T16:01:21.338Z,100368.98
2023-04-22T16:03:59.276Z,100368.15
2023-04-22T16:06:39.503Z,100369.45
2023-04-22T16:09:20.114Z,100359.74
2023-04-22T16:12:00.568Z,100367.13
2023-04-22T16:14:40.861Z,100369.36
2023-04-22T16:17:21.380Z,100368.55
2023-04-22T16:20:01.986Z,100367.04
2023-04-22T16:22:38.897Z,100367.87
2023-04-22T16:25:19.614Z,100368.42
2023-04-22T16:27:59.626Z,100365.96
2023-04-22T16:30:40.680Z,100365.33
2023-04-22T16:33:20.823Z,100366.79
2023-04-22T16:36:00.798Z,100362.93
2023-04-22T16:38:40.403Z,100364.42
2023-04-22T16:41:21.367Z,100358.90
2023-04-22T16:44:01.357Z,100363.17
2023-04-22T16:46:32.821Z,100361.48
2023-04-22T16:49:14.048Z,100363.46
2023-04-22T16:51:54.176Z,100358.33
2023-04-22T16:54:34.276Z,100361.81
2023-04-22T16:57:15.196Z,100361.98
2023-04-22T16:59:54.551Z,100361.38
2023-04-22T17:02:34.667Z,100361.98
2023-04-22T17:05:15.158Z,100360.23
2023-04-22T17:07:48.618Z,100353.02
2023-04-22T17:10:21.861Z,100364.14
2023-04-22T17:13:01.144Z,100365.09
2023-04-22T17:15:40.224Z,100362.35
2023-04-22T17:18:11.336Z,100349.53
2023-04-22T17:20:45.199Z,100359.05
2023-04-22T17:23:24.208Z,100358.19
2023-04-22T17:26:03.784Z,100356.48
2023-04-22T17:28:44.629Z,100359.73
2023-04-22T17:31:25.488Z,100357.26
2023-04-22T17:34:04.669Z,100357.74
2023-04-22T17:36:44.604Z,100364.09
2023-04-22T17:39:24.363Z,100364.52
2023-04-22T17:42:04.680Z,100365.29
2023-04-22T17:44:44.986Z,100367.56
2023-04-22T17:47:24.733Z,100370.44
2023-04-22T17:50:03.994Z,100373.38
2023-04-22T17:52:44.081Z,100378.77
2023-04-22T17:55:23.286Z,100384.94
2023-04-22T17:58:02.893Z,100385.48
2023-04-22T18:00:42.597Z,100387.77
2023-04-22T18:03:21.688Z,100388.48
2023-04-22T18:05:56.872Z,100395.61
2023-04-22T18:08:37.415Z,100395.23
2023-04-22T18:11:17.505Z,100397.86
2023-04-22T18:13:56.973Z,100400.83
2023-04-22T18:16:37.154Z,100402.02
2023-04-22T18:19:16.815Z,100400.64
2023-04-22T18:21:59.959Z,100400.42
2023-04-22T18:24:42.498Z,100397.93
2023-04-22T18:27:21.676Z,100395.43
2023-04-22T18:30:03.109Z,100398.98
2023-04-22T18:32:43.200Z,100403.77
2023-04-22T18:35:23.821Z,100408.17
2023-04-22T18:38:04.364Z,100410.33
2023-04-22T18:40:44.766Z,100410.93
2023-04-22T18:43:26.446Z,100411.02
2023-04-22T18:46:07.265Z,100410.97
2023-04-22T18:48:47.654Z,100416.39
2023-04-22T18:51:28.244Z,100416.02
2023-04-22T18:54:08.305Z,100417.40
2023-04-22T18:56:47.976Z,100413.77
2023-04-22T18:59:28.261Z,100412.23
2023-04-22T19:02:07.872Z,100411.09
2023-04-22T19:04:47.601Z,100411.65
2023-04-22T19:07:27.635Z,100411.23
2023-04-22T19:10:08.046Z,100408.92
2023-04-22T19:12:47.787Z,100411.77
2023-04-22T19:15:27.981Z,100408.77
2023-04-22T19:18:08.083Z,100414.67
2023-04-22T19:20:48.004Z,100413.13
2023-04-22T19:23:28.297Z,100412.61
2023-04-22T19:26:09.961Z,100415.02
2023-04-22T19:28:49.366Z,100416.98
2023-04-22T19:31:28.852Z,100409.31
2023-04-22T19:34:09.146Z,100413.73
2023-04-22T19:36:50.451Z,100416.51
2023-04-22T19:39:29.257Z,100414.26
2023-04-22T19:42:08.846Z,100416.21
2023-04-22T19:44:48.913Z,100412.36
2023-04-22T19:47:28.891Z,100411.69
2023-04-22T19:50:10.480Z,100413.29
2023-04-22T19:52:50.374Z,100413.80
2023-04-22T19:55:29.571Z,100413.52
2023-04-22T19:58:09.162Z,100415.65
2023-04-22T20:00:49.712Z,100411.95
2023-04-22T20:03:29.354Z,100410.39
2023-04-22T20:06:09.536Z,100411.30
2023-04-22T20:08:52.354Z,100408.02
2023-04-22T20:11:30.054Z,100406.41
2023-04-22T20:14:10.320Z,100408.14
2023-04-22T20:16:50.245Z,100410.61
2023-04-22T20:19:30.871Z,100411.42
2023-04-22T20:22:12.485Z,100407.23
2023-04-22T20:25:14.411Z,100408.22
2023-04-22T20:27:55.453Z,100408.02
2023-04-22T20:30:33.566Z,100411.05
2023-04-22T20:33:22.097Z,100409.54
2023-04-22T20:36:05.887Z,100414.10
2023-04-22T20:38:49.144Z,100412.05
2023-04-22T20:41:29.776Z,100415.21
2023-04-22T20:44:10.944Z,100416.08
2023-04-22T20:46:50.906Z,100417.20
2023-04-22T20:49:31.124Z,100418.89
2023-04-22T20:52:12.660Z,100418.64
2023-04-22T20:54:55.541Z,100420.05
2023-04-22T20:57:31.710Z,100419.09
2023-04-22T21:00:11.785Z,100416.67
2023-04-22T21:02:51.468Z,100416.66
2023-04-22T21:05:31.688Z,100414.27
2023-04-22T21:08:26.503Z,100413.35
2023-04-22T21:11:07.070Z,100417.27
2023-04-22T21:13:49.097Z,100416.79
2023-04-22T21:16:32.857Z,100419.91
2023-04-22T21:19:15.834Z,100417.91
2023-04-22T21:21:56.781Z,100417.41
2023-04-22T21:24:35.250Z,100417.25
2023-04-22T21:27:16.569Z,100412.94
2023-04-22T21:29:57.336Z,100420.32
2023-04-22T21:32:43.757Z,100421.39
2023-04-22T21:35:24.694Z,100421.49
2023-04-22T21:38:06.100Z,100419.77
2023-04-22T21:40:47.795Z,100423.52
2023-04-22T21:43:30.007Z,100425.21
2023-04-22T21:46:11.400Z,100426.40
2023-04-22T21:48:51.841Z,100423.20
2023-04-22T21:51:32.642Z,100422.02
2023-04-22T21:54:13.195Z,100425.09
2023-04-22T21:56:52.918Z,100422.45
2023-04-22T21:59:33.222Z,100427.93
2023-04-22T22:02:13.340Z,100427.04
2023-04-22T22:04:53.125Z,100428.63
2023-04-22T22:07:34.719Z,100434.89
2023-04-22T22:10:16.645Z,100431.45
2023-04-22T22:12:54.071Z,100427.77
2023-04-22T22:15:33.803Z,100429.29
2023-04-22T22:18:14.168Z,100429.67
2023-04-22T22:20:54.219Z,100430.33
2023-04-22T22:23:33.992Z,100426.02
2023-04-22T22:26:14.521Z,100432.27
2023-04-22T22:28:54.269Z,100429.21
2023-04-22T22:31:29.447Z,100431.27
2023-04-22T22:34:00.359Z,100431.73
2023-04-22T22:36:40.514Z,100434.09
2023-04-22T22:39:20.745Z,100433.63
2023-04-22T22:42:00.146Z,100429.73
2023-04-22T22:44:41.062Z,100427.27
2023-04-22T22:47:21.252Z,100429.83
2023-04-22T22:50:01.286Z,100430.33
2023-04-22T22:52:41.538Z,100432.52
2023-04-22T22:55:20.635Z,100435.06
2023-04-22T22:58:00.240Z,100433.48
2023-04-22T23:00:39.950Z,100437.48
2023-04-22T23:03:20.052Z,100436.39
2023-04-22T23:06:00.862Z,100438.56
2023-04-22T23:08:40.824Z,100437.55
2023-04-22T23:11:21.240Z,100434.90
2023-04-22T23:14:02.883Z,100437.22
2023-04-22T23:16:44.225Z,100438.68
2023-04-22T23:19:24.586Z,100438.20
2023-04-22T23:22:05.452Z,100435.04
2023-04-22T23:24:45.307Z,100435.79
2023-04-22T23:27:26.433Z,100437.44
2023-04-22T23:30:05.952Z,100435.77
2023-04-22T23:32:48.965Z,100437.14
2023-04-22T23:35:29.665Z,100434.13
2023-04-22T23:38:12.151Z,100431.59
2023-04-22T23:40:51.062Z,100431.42
2023-04-22T23:43:30.385Z,100427.70
2023-04-22T23:46:10.722Z,100427.93
2023-04-22T23:48:43.857Z,100424.60
2023-04-22T23:51:23.408Z,100428.81
2023-04-22T23:54:02.660Z,100429.61
2023-04-22T23:56:42.985Z,100428.70
2023-04-22T23:59:22.504Z,100429.58
